sensor_id;sensor_type;location;lat;lon;timestamp;pressure;altitude;pressure_sealevel;temperature;humidity
58761;BME280;44529;47.464;19.014;2023-04-26T00:00:20;99531.53;;;10.53;68.98
58761;BME280;44529;47.464;19.014;2023-04-26T00:03:23;99536.81;;;10.49;70.74
58761;BME280;44529;47.464;19.014;2023-04-26T00:06:26;99531.69;;;10.56;69.15
58761;BME280;44529;47.464;19.014;2023-04-26T00:09:29;99535.78;;;10.63;68.97
58761;BME280;44529;47.464;19.014;2023-04-26T00:12:31;99546.38;;;10.68;70.28
58761;BME280;44529;47.464;19.014;2023-04-26T00:15:34;99548.19;;;10.64;70.82
58761;BME280;44529;47.464;19.014;2023-04-26T00:18:36;99544.22;;;10.61;70.72
58761;BME280;44529;47.464;19.014;2023-04-26T00:21:39;99553.16;;;10.53;71.17
58761;BME280;44529;47.464;19.014;2023-04-26T00:24:41;99554.13;;;10.57;71.93
58761;BME280;44529;47.464;19.014;2023-04-26T00:27:44;99547.09;;;10.56;71.28
58761;BME280;44529;47.464;19.014;2023-04-26T00:30:47;99552.37;;;10.52;71.36
58761;BME280;44529;47.464;19.014;2023-04-26T00:33:50;99559.81;;;10.55;70.49
58761;BME280;44529;47.464;19.014;2023-04-26T00:36:52;99562.47;;;10.43;71.19
58761;BME280;44529;47.464;19.014;2023-04-26T00:39:55;99564.13;;;10.56;70.29
58761;BME280;44529;47.464;19.014;2023-04-26T00:42:58;99564.78;;;10.53;71.00
58761;BME280;44529;47.464;19.014;2023-04-26T00:46:01;99561.88;;;10.38;71.73
58761;BME280;44529;47.464;19.014;2023-04-26T00:49:04;99569.97;;;10.38;71.40
58761;BME280;44529;47.464;19.014;2023-04-26T00:52:06;99571.12;;;10.28;72.11
58761;BME280;44529;47.464;19.014;2023-04-26T00:55:09;99566.03;;;10.26;73.07
58761;BME280;44529;47.464;19.014;2023-04-26T00:58:11;99574.47;;;10.16;72.11
58761;BME280;44529;47.464;19.014;2023-04-26T01:01:14;99566.53;;;10.20;71.88
58761;BME280;44529;47.464;19.014;2023-04-26T01:04:16;99576.88;;;10.09;71.83
58761;BME280;44529;47.464;19.014;2023-04-26T01:07:19;99572.56;;;10.17;70.90
58761;BME280;44529;47.464;19.014;2023-04-26T01:10:22;99576.94;;;10.00;72.54
58761;BME280;44529;47.464;19.014;2023-04-26T01:13:25;99573.13;;;10.01;72.08
58761;BME280;44529;47.464;19.014;2023-04-26T01:16:28;99581.69;;;10.03;71.67
58761;BME280;44529;47.464;19.014;2023-04-26T01:19:30;99595.72;;;9.88;72.33
58761;BME280;44529;47.464;19.014;2023-04-26T01:22:34;99599.06;;;9.85;71.72
58761;BME280;44529;47.464;19.014;2023-04-26T01:25:37;99595.25;;;9.86;72.44
58761;BME280;44529;47.464;19.014;2023-04-26T01:28:40;99594.63;;;9.81;73.19
58761;BME280;44529;47.464;19.014;2023-04-26T01:31:42;99600.19;;;9.75;73.41
58761;BME280;44529;47.464;19.014;2023-04-26T01:34:44;99604.34;;;9.64;72.74
58761;BME280;44529;47.464;19.014;2023-04-26T01:37:47;99608.81;;;9.60;74.67
58761;BME280;44529;47.464;19.014;2023-04-26T01:40:49;99609.59;;;9.69;73.32
58761;BME280;44529;47.464;19.014;2023-04-26T01:43:52;99624.81;;;9.65;72.84
58761;BME280;44529;47.464;19.014;2023-04-26T01:46:54;99629.44;;;9.56;73.56
58761;BME280;44529;47.464;19.014;2023-04-26T01:49:58;99616.75;;;9.57;73.15
58761;BME280;44529;47.464;19.014;2023-04-26T01:53:01;99617.06;;;9.46;75.04
58761;BME280;44529;47.464;19.014;2023-04-26T01:56:03;99625.50;;;9.45;73.74
58761;BME280;44529;47.464;19.014;2023-04-26T01:59:06;99628.19;;;9.45;74.41
58761;BME280;44529;47.464;19.014;2023-04-26T02:02:09;99627.87;;;9.46;73.96
58761;BME280;44529;47.464;19.014;2023-04-26T02:05:12;99629.47;;;9.39;74.10
58761;BME280;44529;47.464;19.014;2023-04-26T02:08:14;99633.13;;;9.34;73.62
58761;BME280;44529;47.464;19.014;2023-04-26T02:11:16;99633.44;;;9.24;72.92
58761;BME280;44529;47.464;19.014;2023-04-26T02:14:19;99634.41;;;9.28;73.53
58761;BME280;44529;47.464;19.014;2023-04-26T02:17:24;99643.25;;;9.20;74.24
58761;BME280;44529;47.464;19.014;2023-04-26T02:20:27;99650.09;;;9.17;73.83
58761;BME280;44529;47.464;19.014;2023-04-26T02:23:29;99648.00;;;9.14;74.73
58761;BME280;44529;47.464;19.014;2023-04-26T02:26:32;99658.37;;;9.21;73.52
58761;BME280;44529;47.464;19.014;2023-04-26T02:29:34;99648.34;;;9.13;74.49
58761;BME280;44529;47.464;19.014;2023-04-26T02:32:45;99651.03;;;9.13;74.69
58761;BME280;44529;47.464;19.014;2023-04-26T02:35:48;99652.31;;;9.24;73.95
58761;BME280;44529;47.464;19.014;2023-04-26T02:38:50;99644.88;;;9.21;73.32
58761;BME280;44529;47.464;19.014;2023-04-26T02:41:53;99653.88;;;9.08;74.05
58761;BME280;44529;47.464;19.014;2023-04-26T02:44:55;99659.13;;;9.13;73.67
58761;BME280;44529;47.464;19.014;2023-04-26T02:47:58;99650.09;;;9.09;74.12
58761;BME280;44529;47.464;19.014;2023-04-26T02:51:00;99649.13;;;9.05;72.86
58761;BME280;44529;47.464;19.014;2023-04-26T02:54:03;99660.88;;;9.09;73.18
58761;BME280;44529;47.464;19.014;2023-04-26T02:57:08;99661.69;;;9.09;73.28
58761;BME280;44529;47.464;19.014;2023-04-26T03:00:11;99665.78;;;9.07;73.11
58761;BME280;44529;47.464;19.014;2023-04-26T03:03:15;99663.59;;;9.09;71.65
58761;BME280;44529;47.464;19.014;2023-04-26T03:06:19;99671.19;;;9.07;73.47
58761;BME280;44529;47.464;19.014;2023-04-26T03:09:21;99679.44;;;9.02;72.15
58761;BME280;44529;47.464;19.014;2023-04-26T03:12:25;99676.91;;;9.05;72.48
58761;BME280;44529;47.464;19.014;2023-04-26T03:15:27;99685.78;;;8.97;72.46
58761;BME280;44529;47.464;19.014;2023-04-26T03:18:30;99681.31;;;8.92;73.08
58761;BME280;44529;47.464;19.014;2023-04-26T03:21:33;99690.66;;;8.86;71.73
58761;BME280;44529;47.464;19.014;2023-04-26T03:24:35;99691.75;;;8.85;71.77
58761;BME280;44529;47.464;19.014;2023-04-26T03:27:37;99682.69;;;8.81;71.72
58761;BME280;44529;47.464;19.014;2023-04-26T03:30:40;99686.03;;;8.78;72.10
58761;BME280;44529;47.464;19.014;2023-04-26T03:33:42;99687.63;;;8.79;72.07
58761;BME280;44529;47.464;19.014;2023-04-26T03:36:45;99689.84;;;8.77;72.05
58761;BME280;44529;47.464;19.014;2023-04-26T03:39:47;99698.25;;;8.84;71.11
58761;BME280;44529;47.464;19.014;2023-04-26T03:42:51;99697.94;;;8.86;70.97
58761;BME280;44529;47.464;19.014;2023-04-26T03:45:55;99699.38;;;8.83;71.25
58761;BME280;44529;47.464;19.014;2023-04-26T03:48:58;99706.81;;;8.78;72.02
58761;BME280;44529;47.464;19.014;2023-04-26T03:52:00;99710.16;;;8.83;71.39
58761;BME280;44529;47.464;19.014;2023-04-26T03:55:03;99706.16;;;8.81;70.61
58761;BME280;44529;47.464;19.014;2023-04-26T03:58:05;99715.50;;;8.75;71.52
58761;BME280;44529;47.464;19.014;2023-04-26T04:01:09;99722.34;;;8.81;70.55
58761;BME280;44529;47.464;19.014;2023-04-26T04:04:12;99728.72;;;8.85;71.27
58761;BME280;44529;47.464;19.014;2023-04-26T04:07:15;99735.34;;;8.79;72.41
58761;BME280;44529;47.464;19.014;2023-04-26T04:10:18;99737.13;;;8.83;70.61
58761;BME280;44529;47.464;19.014;2023-04-26T04:13:20;99746.31;;;8.82;69.45
58761;BME280;44529;47.464;19.014;2023-04-26T04:16:23;99748.03;;;8.78;70.26
58761;BME280;44529;47.464;19.014;2023-04-26T04:19:26;99747.72;;;8.80;70.14
58761;BME280;44529;47.464;19.014;2023-04-26T04:22:29;99750.59;;;8.83;70.43
58761;BME280;44529;47.464;19.014;2023-04-26T04:25:31;99740.56;;;8.75;70.62
58761;BME280;44529;47.464;19.014;2023-04-26T04:28:34;99754.34;;;8.74;70.80
58761;BME280;44529;47.464;19.014;2023-04-26T04:31:37;99762.41;;;8.65;70.95
58761;BME280;44529;47.464;19.014;2023-04-26T04:34:41;99776.84;;;8.69;70.83
58761;BME280;44529;47.464;19.014;2023-04-26T04:37:45;99775.75;;;8.70;70.90
58761;BME280;44529;47.464;19.014;2023-04-26T04:40:48;99787.50;;;8.74;70.32
58761;BME280;44529;47.464;19.014;2023-04-26T04:43:53;99786.75;;;8.82;69.75
58761;BME280;44529;47.464;19.014;2023-04-26T04:46:56;99793.72;;;8.83;69.68
58761;BME280;44529;47.464;19.014;2023-04-26T04:49:59;99795.69;;;8.69;69.58
58761;BME280;44529;47.464;19.014;2023-04-26T04:53:01;99802.06;;;8.73;70.18
58761;BME280;44529;47.464;19.014;2023-04-26T04:56:04;99808.44;;;8.77;69.81
58761;BME280;44529;47.464;19.014;2023-04-26T04:59:08;99810.41;;;8.63;69.89
58761;BME280;44529;47.464;19.014;2023-04-26T05:02:10;99813.94;;;8.63;70.95
58761;BME280;44529;47.464;19.014;2023-04-26T05:05:13;99821.94;;;8.77;69.95
58761;BME280;44529;47.464;19.014;2023-04-26T05:08:15;99824.00;;;8.80;69.89
58761;BME280;44529;47.464;19.014;2023-04-26T05:11:18;99816.66;;;8.72;69.91
58761;BME280;44529;47.464;19.014;2023-04-26T05:14:20;99821.41;;;8.75;69.58
58761;BME280;44529;47.464;19.014;2023-04-26T05:17:23;99825.56;;;8.81;68.71
58761;BME280;44529;47.464;19.014;2023-04-26T05:20:25;99832.84;;;8.72;69.30
58761;BME280;44529;47.464;19.014;2023-04-26T05:23:29;99832.03;;;8.72;69.75
58761;BME280;44529;47.464;19.014;2023-04-26T05:26:33;99839.94;;;8.68;71.96
58761;BME280;44529;47.464;19.014;2023-04-26T05:29:37;99843.44;;;8.68;71.10
58761;BME280;44529;47.464;19.014;2023-04-26T05:32:39;99842.34;;;8.70;69.51
58761;BME280;44529;47.464;19.014;2023-04-26T05:35:43;99849.94;;;8.67;68.94
58761;BME280;44529;47.464;19.014;2023-04-26T05:38:45;99851.88;;;8.76;68.04
58761;BME280;44529;47.464;19.014;2023-04-26T05:41:49;99844.41;;;8.73;64.93
58761;BME280;44529;47.464;19.014;2023-04-26T05:44:56;99847.41;;;8.71;65.17
58761;BME280;44529;47.464;19.014;2023-04-26T05:48:01;99849.00;;;8.72;65.48
58761;BME280;44529;47.464;19.014;2023-04-26T05:51:04;99856.19;;;8.77;65.84
58761;BME280;44529;47.464;19.014;2023-04-26T05:54:06;99847.16;;;8.81;64.81
58761;BME280;44529;47.464;19.014;2023-04-26T05:57:09;99859.13;;;8.98;62.15
58761;BME280;44529;47.464;19.014;2023-04-26T06:00:13;99858.66;;;8.95;61.72
58761;BME280;44529;47.464;19.014;2023-04-26T06:03:17;99867.03;;;8.94;59.75
58761;BME280;44529;47.464;19.014;2023-04-26T06:06:20;99860.06;;;8.93;60.36
58761;BME280;44529;47.464;19.014;2023-04-26T06:09:23;99868.47;;;8.91;61.15
58761;BME280;44529;47.464;19.014;2023-04-26T06:12:25;99866.25;;;8.93;59.03
58761;BME280;44529;47.464;19.014;2023-04-26T06:15:29;99871.63;;;8.93;58.09
58761;BME280;44529;47.464;19.014;2023-04-26T06:18:35;99873.06;;;8.91;59.11
58761;BME280;44529;47.464;19.014;2023-04-26T06:21:40;99874.34;;;8.93;58.18
58761;BME280;44529;47.464;19.014;2023-04-26T06:24:42;99886.78;;;9.03;60.05
58761;BME280;44529;47.464;19.014;2023-04-26T06:27:45;99880.13;;;9.09;58.36
58761;BME280;44529;47.464;19.014;2023-04-26T06:30:47;99889.81;;;9.10;60.01
58761;BME280;44529;47.464;19.014;2023-04-26T06:33:50;99876.50;;;9.14;58.39
58761;BME280;44529;47.464;19.014;2023-04-26T06:36:52;99873.31;;;9.12;58.23
58761;BME280;44529;47.464;19.014;2023-04-26T06:39:56;99874.91;;;9.13;58.72
58761;BME280;44529;47.464;19.014;2023-04-26T06:42:59;99875.56;;;9.18;58.75
58761;BME280;44529;47.464;19.014;2023-04-26T06:46:06;99878.44;;;9.22;57.84
58761;BME280;44529;47.464;19.014;2023-04-26T06:49:08;99881.31;;;9.26;56.60
58761;BME280;44529;47.464;19.014;2023-04-26T06:52:16;99887.66;;;9.21;57.55
58761;BME280;44529;47.464;19.014;2023-04-26T06:55:21;99899.88;;;9.27;56.85
58761;BME280;44529;47.464;19.014;2023-04-26T06:58:23;99903.84;;;9.21;57.15
58761;BME280;44529;47.464;19.014;2023-04-26T07:01:27;99890.97;;;9.27;56.91
58761;BME280;44529;47.464;19.014;2023-04-26T07:04:30;99907.38;;;9.39;57.69
58761;BME280;44529;47.464;19.014;2023-04-26T07:07:33;99896.91;;;9.37;56.58
58761;BME280;44529;47.464;19.014;2023-04-26T07:10:35;99886.47;;;9.44;54.67
58761;BME280;44529;47.464;19.014;2023-04-26T07:13:39;99893.63;;;9.49;55.37
58761;BME280;44529;47.464;19.014;2023-04-26T07:16:41;99900.28;;;9.52;54.67
58761;BME280;44529;47.464;19.014;2023-04-26T07:19:43;99896.00;;;9.50;56.48
58761;BME280;44529;47.464;19.014;2023-04-26T07:22:46;99895.41;;;9.54;55.95
58761;BME280;44529;47.464;19.014;2023-04-26T07:25:48;99900.81;;;9.71;53.71
58761;BME280;44529;47.464;19.014;2023-04-26T07:28:51;99915.50;;;10.04;52.40
58761;BME280;44529;47.464;19.014;2023-04-26T07:31:53;99908.41;;;10.35;49.58
58761;BME280;44529;47.464;19.014;2023-04-26T07:34:56;99928.72;;;10.75;48.50
58761;BME280;44529;47.464;19.014;2023-04-26T07:37:58;99918.50;;;11.07;46.52
58761;BME280;44529;47.464;19.014;2023-04-26T07:41:00;99912.31;;;11.45;44.56
58761;BME280;44529;47.464;19.014;2023-04-26T07:44:03;99935.41;;;11.89;44.76
58761;BME280;44529;47.464;19.014;2023-04-26T07:47:13;99932.63;;;11.98;42.22
58761;BME280;44529;47.464;19.014;2023-04-26T07:50:15;99933.22;;;11.74;43.25
58761;BME280;44529;47.464;19.014;2023-04-26T07:53:18;99934.16;;;12.07;43.29
58761;BME280;44529;47.464;19.014;2023-04-26T07:56:20;99940.53;;;12.53;42.15
58761;BME280;44529;47.464;19.014;2023-04-26T07:59:23;99943.81;;;12.80;41.75
58761;BME280;44529;47.464;19.014;2023-04-26T08:02:25;99944.09;;;13.32;41.37
58761;BME280;44529;47.464;19.014;2023-04-26T08:05:45;99939.28;;;13.62;40.16
58761;BME280;44529;47.464;19.014;2023-04-26T08:08:49;99952.16;;;13.90;39.21
58761;BME280;44529;47.464;19.014;2023-04-26T08:11:52;99965.66;;;13.98;39.51
58761;BME280;44529;47.464;19.014;2023-04-26T08:14:54;99957.56;;;14.26;40.88
58761;BME280;44529;47.464;19.014;2023-04-26T08:17:57;99952.09;;;14.51;40.16
58761;BME280;44529;47.464;19.014;2023-04-26T08:20:59;99960.66;;;14.65;37.97
58761;BME280;44529;47.464;19.014;2023-04-26T08:24:02;99953.13;;;14.74;38.56
58761;BME280;44529;47.464;19.014;2023-04-26T08:27:04;99963.78;;;14.51;39.80
58761;BME280;44529;47.464;19.014;2023-04-26T08:30:07;99970.81;;;14.52;37.95
58761;BME280;44529;47.464;19.014;2023-04-26T08:33:10;99970.75;;;14.93;37.55
58761;BME280;44529;47.464;19.014;2023-04-26T08:36:12;99951.81;;;14.96;35.56
58761;BME280;44529;47.464;19.014;2023-04-26T08:39:14;99970.75;;;15.36;35.49
58761;BME280;44529;47.464;19.014;2023-04-26T08:42:19;99956.53;;;15.90;36.50
58761;BME280;44529;47.464;19.014;2023-04-26T08:45:25;99983.31;;;16.20;35.32
58761;BME280;44529;47.464;19.014;2023-04-26T08:48:30;99972.03;;;16.57;34.13
58761;BME280;44529;47.464;19.014;2023-04-26T08:51:35;99988.00;;;16.93;33.38
58761;BME280;44529;47.464;19.014;2023-04-26T08:54:39;99970.03;;;16.92;33.55
58761;BME280;44529;47.464;19.014;2023-04-26T08:57:44;99976.44;;;17.00;32.12
58761;BME280;44529;47.464;19.014;2023-04-26T09:00:49;99993.47;;;16.93;33.27
58761;BME280;44529;47.464;19.014;2023-04-26T09:03:51;99982.62;;;16.97;32.16
58761;BME280;44529;47.464;19.014;2023-04-26T09:07:00;99979.22;;;17.23;32.31
58761;BME280;44529;47.464;19.014;2023-04-26T09:10:03;99991.75;;;17.04;32.41
58761;BME280;44529;47.464;19.014;2023-04-26T09:13:06;99975.78;;;16.87;31.53
58761;BME280;44529;47.464;19.014;2023-04-26T09:16:08;99968.91;;;16.19;33.43
58761;BME280;44529;47.464;19.014;2023-04-26T09:19:11;99966.72;;;16.64;33.15
58761;BME280;44529;47.464;19.014;2023-04-26T09:22:13;99981.50;;;16.43;34.23
58761;BME280;44529;47.464;19.014;2023-04-26T09:25:17;99971.97;;;15.67;33.55
58761;BME280;44529;47.464;19.014;2023-04-26T09:28:21;99971.72;;;16.23;34.99
58761;BME280;44529;47.464;19.014;2023-04-26T09:31:47;99975.22;;;16.23;34.04
58761;BME280;44529;47.464;19.014;2023-04-26T09:34:51;99959.78;;;15.96;33.19
58761;BME280;44529;47.464;19.014;2023-04-26T09:37:59;99974.59;;;15.79;34.81
58761;BME280;44529;47.464;19.014;2023-04-26T09:41:13;99977.28;;;15.95;33.29
58761;BME280;44529;47.464;19.014;2023-04-26T09:44:22;99977.66;;;15.93;34.28
58761;BME280;44529;47.464;19.014;2023-04-26T09:47:26;99985.16;;;16.16;34.26
58761;BME280;44529;47.464;19.014;2023-04-26T09:50:30;99971.72;;;16.07;33.68
58761;BME280;44529;47.464;19.014;2023-04-26T09:53:34;99978.34;;;16.06;32.78
58761;BME280;44529;47.464;19.014;2023-04-26T09:56:38;99970.06;;;16.03;33.38
58761;BME280;44529;47.464;19.014;2023-04-26T09:59:45;99965.41;;;16.03;32.93
58761;BME280;44529;47.464;19.014;2023-04-26T10:02:48;99989.72;;;15.77;34.23
58761;BME280;44529;47.464;19.014;2023-04-26T10:05:51;99972.75;;;15.67;35.19
58761;BME280;44529;47.464;19.014;2023-04-26T10:08:55;99972.63;;;15.95;34.96
58761;BME280;44529;47.464;19.014;2023-04-26T10:11:58;99983.81;;;15.75;34.39
58761;BME280;44529;47.464;19.014;2023-04-26T10:15:02;99983.72;;;15.87;32.79
58761;BME280;44529;47.464;19.014;2023-04-26T10:18:05;99978.72;;;15.89;32.28
58761;BME280;44529;47.464;19.014;2023-04-26T10:21:20;99976.53;;;15.79;30.74
58761;BME280;44529;47.464;19.014;2023-04-26T10:24:24;99955.75;;;15.42;32.68
58761;BME280;44529;47.464;19.014;2023-04-26T10:27:50;99972.25;;;14.90;32.89
58761;BME280;44529;47.464;19.014;2023-04-26T10:30:59;99968.00;;;15.05;33.09
58761;BME280;44529;47.464;19.014;2023-04-26T10:34:21;99973.75;;;15.31;33.40
58761;BME280;44529;47.464;19.014;2023-04-26T10:37:24;99981.22;;;15.50;31.81
58761;BME280;44529;47.464;19.014;2023-04-26T10:40:27;99984.09;;;15.10;34.19
58761;BME280;44529;47.464;19.014;2023-04-26T10:43:29;99985.91;;;14.50;34.08
58761;BME280;44529;47.464;19.014;2023-04-26T10:46:38;99975.41;;;14.64;35.29
58761;BME280;44529;47.464;19.014;2023-04-26T10:49:44;99983.22;;;14.94;35.06
58761;BME280;44529;47.464;19.014;2023-04-26T10:56:05;99986.84;;;15.57;34.54
58761;BME280;44529;47.464;19.014;2023-04-26T10:59:09;99965.34;;;15.84;34.92
58761;BME280;44529;47.464;19.014;2023-04-26T11:02:14;99976.28;;;15.24;35.04
58761;BME280;44529;47.464;19.014;2023-04-26T11:05:36;99984.41;;;14.80;35.89
58761;BME280;44529;47.464;19.014;2023-04-26T11:08:40;99983.84;;;14.34;35.06
58761;BME280;44529;47.464;19.014;2023-04-26T11:11:51;99990.22;;;14.14;36.18
58761;BME280;44529;47.464;19.014;2023-04-26T11:14:58;99991.13;;;14.06;35.70
58761;BME280;44529;47.464;19.014;2023-04-26T11:18:03;99981.28;;;14.01;36.83
58761;BME280;44529;47.464;19.014;2023-04-26T11:21:07;99979.44;;;14.30;36.46
58761;BME280;44529;47.464;19.014;2023-04-26T11:24:14;99977.97;;;14.20;34.80
58761;BME280;44529;47.464;19.014;2023-04-26T11:27:16;99987.50;;;14.02;35.49
58761;BME280;44529;47.464;19.014;2023-04-26T11:30:18;99990.56;;;13.76;36.12
58761;BME280;44529;47.464;19.014;2023-04-26T11:33:21;99980.22;;;13.57;35.30
58761;BME280;44529;47.464;19.014;2023-04-26T11:36:24;99984.75;;;13.65;34.88
58761;BME280;44529;47.464;19.014;2023-04-26T11:39:26;99977.72;;;13.52;35.92
58761;BME280;44529;47.464;19.014;2023-04-26T11:42:29;99990.19;;;13.41;35.25
58761;BME280;44529;47.464;19.014;2023-04-26T11:45:33;99995.34;;;13.91;36.56
58761;BME280;44529;47.464;19.014;2023-04-26T11:48:37;99985.13;;;14.25;35.21
58761;BME280;44529;47.464;19.014;2023-04-26T11:51:40;99980.13;;;14.15;34.28
58761;BME280;44529;47.464;19.014;2023-04-26T11:54:43;99972.09;;;13.94;35.18
58761;BME280;44529;47.464;19.014;2023-04-26T11:57:46;99982.97;;;13.81;34.77
58761;BME280;44529;47.464;19.014;2023-04-26T12:00:58;99977.19;;;13.71;35.89
58761;BME280;44529;47.464;19.014;2023-04-26T12:04:01;99983.19;;;13.64;36.95
58761;BME280;44529;47.464;19.014;2023-04-26T12:07:04;99982.53;;;13.67;37.63
58761;BME280;44529;47.464;19.014;2023-04-26T12:10:15;99985.03;;;13.72;37.06
58761;BME280;44529;47.464;19.014;2023-04-26T12:13:18;99986.69;;;14.26;36.60
58761;BME280;44529;47.464;19.014;2023-04-26T12:16:21;99988.94;;;14.36;33.58
58761;BME280;44529;47.464;19.014;2023-04-26T12:19:32;99985.31;;;14.32;34.21
58761;BME280;44529;47.464;19.014;2023-04-26T12:22:34;99988.94;;;14.36;34.47
58761;BME280;44529;47.464;19.014;2023-04-26T12:25:39;99993.16;;;14.09;33.73
58761;BME280;44529;47.464;19.014;2023-04-26T12:28:43;99981.75;;;13.91;34.97
58761;BME280;44529;47.464;19.014;2023-04-26T12:31:45;99992.50;;;14.00;36.34
58761;BME280;44529;47.464;19.014;2023-04-26T12:34:48;99993.28;;;14.00;35.47
58761;BME280;44529;47.464;19.014;2023-04-26T12:37:50;99994.88;;;13.89;35.37
58761;BME280;44529;47.464;19.014;2023-04-26T12:40:55;99998.81;;;13.67;33.72
58761;BME280;44529;47.464;19.014;2023-04-26T12:43:57;99999.63;;;13.68;35.46
58761;BME280;44529;47.464;19.014;2023-04-26T12:47:00;100005.84;;;13.68;35.88
58761;BME280;44529;47.464;19.014;2023-04-26T12:50:03;100000.44;;;13.93;35.99
58761;BME280;44529;47.464;19.014;2023-04-26T12:53:06;99992.38;;;13.96;35.27
58761;BME280;44529;47.464;19.014;2023-04-26T12:56:08;99999.41;;;13.85;36.50
58761;BME280;44529;47.464;19.014;2023-04-26T12:59:11;100011.16;;;13.65;35.38
58761;BME280;44529;47.464;19.014;2023-04-26T13:02:13;100011.00;;;13.49;37.29
58761;BME280;44529;47.464;19.014;2023-04-26T13:05:16;100011.09;;;13.28;37.85
58761;BME280;44529;47.464;19.014;2023-04-26T13:08:18;100012.22;;;13.27;37.46
58761;BME280;44529;47.464;19.014;2023-04-26T13:11:21;100010.88;;;13.33;37.21
58761;BME280;44529;47.464;19.014;2023-04-26T13:14:23;100026.63;;;13.40;36.85
58761;BME280;44529;47.464;19.014;2023-04-26T13:17:25;100016.97;;;13.30;35.68
58761;BME280;44529;47.464;19.014;2023-04-26T13:20:28;100012.16;;;13.48;35.78
58761;BME280;44529;47.464;19.014;2023-04-26T13:23:32;100014.28;;;13.42;37.32
58761;BME280;44529;47.464;19.014;2023-04-26T13:26:34;100001.91;;;13.33;37.04
58761;BME280;44529;47.464;19.014;2023-04-26T13:29:37;100022.66;;;13.16;38.67
58761;BME280;44529;47.464;19.014;2023-04-26T13:32:39;100029.16;;;13.03;38.11
58761;BME280;44529;47.464;19.014;2023-04-26T13:35:41;100034.34;;;12.96;36.14
58761;BME280;44529;47.464;19.014;2023-04-26T13:38:44;100037.91;;;12.88;36.65
58761;BME280;44529;47.464;19.014;2023-04-26T13:41:49;100044.19;;;12.80;35.37
58761;BME280;44529;47.464;19.014;2023-04-26T13:44:53;100039.28;;;12.94;36.59
58761;BME280;44529;47.464;19.014;2023-04-26T13:47:55;100030.47;;;13.18;36.69
58761;BME280;44529;47.464;19.014;2023-04-26T13:50:58;100045.88;;;13.47;34.20
58761;BME280;44529;47.464;19.014;2023-04-26T13:54:00;100020.13;;;13.32;34.37
58761;BME280;44529;47.464;19.014;2023-04-26T13:57:03;100034.94;;;13.22;36.17
58761;BME280;44529;47.464;19.014;2023-04-26T14:00:06;100056.81;;;13.17;36.46
58761;BME280;44529;47.464;19.014;2023-04-26T14:03:12;100049.75;;;13.04;37.26
58761;BME280;44529;47.464;19.014;2023-04-26T14:06:15;100054.72;;;13.02;36.89
58761;BME280;44529;47.464;19.014;2023-04-26T14:09:17;100039.72;;;12.84;37.60
58761;BME280;44529;47.464;19.014;2023-04-26T14:12:20;100037.59;;;12.89;39.09
58761;BME280;44529;47.464;19.014;2023-04-26T14:15:22;100045.41;;;12.91;37.09
58761;BME280;44529;47.464;19.014;2023-04-26T14:18:25;100053.28;;;12.84;37.50
58761;BME280;44529;47.464;19.014;2023-04-26T14:21:27;100058.56;;;12.80;35.99
58761;BME280;44529;47.464;19.014;2023-04-26T14:24:29;100050.94;;;12.73;37.27
58761;BME280;44529;47.464;19.014;2023-04-26T14:27:33;100053.41;;;12.66;36.69
58761;BME280;44529;47.464;19.014;2023-04-26T14:30:36;100042.00;;;12.94;36.03
58761;BME280;44529;47.464;19.014;2023-04-26T14:33:38;100040.37;;;13.22;37.30
58761;BME280;44529;47.464;19.014;2023-04-26T14:36:41;100036.59;;;13.48;35.97
58761;BME280;44529;47.464;19.014;2023-04-26T14:39:43;100036.47;;;13.44;35.06
58761;BME280;44529;47.464;19.014;2023-04-26T14:42:46;100035.59;;;13.52;35.63
58761;BME280;44529;47.464;19.014;2023-04-26T14:45:48;100043.75;;;13.65;36.93
58761;BME280;44529;47.464;19.014;2023-04-26T14:48:51;100042.31;;;13.79;35.23
58761;BME280;44529;47.464;19.014;2023-04-26T14:51:53;100034.13;;;13.55;36.36
58761;BME280;44529;47.464;19.014;2023-04-26T14:54:56;100065.22;;;13.45;36.84
58761;BME280;44529;47.464;19.014;2023-04-26T14:57:58;100073.78;;;13.14;37.17
58761;BME280;44529;47.464;19.014;2023-04-26T15:01:01;100075.91;;;12.88;37.63
58761;BME280;44529;47.464;19.014;2023-04-26T15:04:03;100065.56;;;12.81;37.57
58761;BME280;44529;47.464;19.014;2023-04-26T15:07:06;100070.72;;;12.74;36.93
58761;BME280;44529;47.464;19.014;2023-04-26T15:10:21;100066.88;;;12.75;36.21
58761;BME280;44529;47.464;19.014;2023-04-26T15:13:24;100074.50;;;12.61;37.50
58761;BME280;44529;47.464;19.014;2023-04-26T15:16:26;100076.16;;;12.74;37.33
58761;BME280;44529;47.464;19.014;2023-04-26T15:19:28;100081.13;;;12.72;39.09
58761;BME280;44529;47.464;19.014;2023-04-26T15:22:34;100067.91;;;12.70;36.65
58761;BME280;44529;47.464;19.014;2023-04-26T15:25:40;100068.88;;;12.66;37.40
58761;BME280;44529;47.464;19.014;2023-04-26T15:28:42;100065.00;;;12.46;37.54
58761;BME280;44529;47.464;19.014;2023-04-26T15:31:44;100066.22;;;12.57;38.05
58761;BME280;44529;47.464;19.014;2023-04-26T15:34:47;100064.78;;;12.81;37.58
58761;BME280;44529;47.464;19.014;2023-04-26T15:37:50;100065.44;;;12.98;38.59
58761;BME280;44529;47.464;19.014;2023-04-26T15:40:54;100066.38;;;13.23;38.13
58761;BME280;44529;47.464;19.014;2023-04-26T15:43:57;100061.09;;;13.27;36.79
58761;BME280;44529;47.464;19.014;2023-04-26T15:47:00;100066.81;;;13.46;36.11
58761;BME280;44529;47.464;19.014;2023-04-26T15:50:03;100062.88;;;13.56;33.00
58761;BME280;44529;47.464;19.014;2023-04-26T15:53:06;100063.28;;;13.46;34.47
58761;BME280;44529;47.464;19.014;2023-04-26T15:56:13;100080.31;;;13.22;34.09
58761;BME280;44529;47.464;19.014;2023-04-26T15:59:15;100075.97;;;13.00;35.68
58761;BME280;44529;47.464;19.014;2023-04-26T16:02:18;100082.78;;;12.85;36.51
58761;BME280;44529;47.464;19.014;2023-04-26T16:05:20;100094.69;;;12.72;36.36